Shoei Maru — JD3054 — position and weather

sailwx.info

Track history (hours):
 
Tides and Currents Weather Stations Pressure Air Temp Water Temp Dewpoint Dewpoint Depression Visibility Wind Speed Wind Dir Waves Ship Positions

Shoei Maru

Last reported at 2017-Nov-20 00:30 UTC. Time now 2017-Nov-20 15:27 UTC.
Position N 35°25' E 139°39'.

Length 105 m; draft 5.2 m.

Type: Tanker. MMSI: 431001401.

Date/timePositionNaut miles runAvg speedWind from/ knotsBaromVisibWave heightAir tempDewpointWater temp
2017-Nov-20 00:30N 35°25' E 139°39'0 0.0
2017-Nov-20 00:00N 35°25' E 139°39'0 0.0
2017-Nov-19 23:30N 35°25' E 139°39'1 2.6
2017-Nov-19 23:00N 35°24' E 139°40'4 7.7
2017-Nov-19 22:30N 35°25' E 139°44'612.7
2017-Nov-19 22:01N 35°29' E 139°50'613.0
2017-Nov-19 21:31N 35°33' E 139°57'612.6
2017-Nov-19 21:00N 35°36' E 140°04'4 0.1
2017-Nov-18 03:08N 35°33' E 140°01'0 0.0
2017-Nov-18 02:44N 35°33' E 140°01'0 0.0
2017-Nov-18 02:14N 35°33' E 140°01'0 0.0
2017-Nov-18 01:56N 35°33' E 140°01'0 0.0
2017-Nov-18 01:29N 35°33' E 140°01'0 0.0
2017-Nov-18 00:59N 35°33' E 140°01'0 0.0
2017-Nov-18 00:29N 35°33' E 140°01'610.0
2017-Nov-17 23:53N 35°29' E 139°55'513.8
2017-Nov-17 23:30N 35°27' E 139°49'612.6
2017-Nov-17 23:00N 35°21' E 139°45'5 9.9
2017-Nov-17 22:30N 35°17' E 139°46'611.2
2017-Nov-17 22:00N 35°11' E 139°47'713.2
2017-Nov-17 21:30N 35°04' E 139°46'714.5
2017-Nov-17 21:00N 34°58' E 139°43'712.7
2017-Nov-17 20:30N 34°52' E 139°47'912.7
2017-Nov-17 19:45N 34°53' E 139°58'6 0.1
2017-Nov-15 16:31N 34°49' E 139°53'614.3
2017-Nov-15 16:04N 34°51' E 139°45'114.3
2017-Nov-15 16:00N 34°51' E 139°45'714.1
2017-Nov-15 15:30N 34°57' E 139°42'713.3
2017-Nov-15 15:00N 35°04' E 139°43'713.9
2017-Nov-15 14:30N 35°11' E 139°45'612.3
2017-Nov-15 14:00N 35°17' E 139°45'713.2
2017-Nov-15 13:30N 35°23' E 139°41'3 5.8
2017-Nov-15 12:58N 35°25' E 139°38'0 0.0
2017-Nov-15 12:28N 35°25' E 139°38'0 0.0
2017-Nov-15 11:58N 35°25' E 139°38'0 0.0
2017-Nov-15 11:28N 35°25' E 139°38'0 0.0
2017-Nov-15 10:58N 35°25' E 139°38'0 0.0
2017-Nov-15 10:28N 35°25' E 139°38'0 0.0
2017-Nov-15 09:58N 35°25' E 139°38'0 0.0
2017-Nov-15 09:28N 35°25' E 139°38'0 0.0
2017-Nov-15 08:58N 35°25' E 139°38'0 0.0
2017-Nov-15 08:28N 35°25' E 139°38'0 0.0
2017-Nov-15 07:58N 35°25' E 139°38'0 0.0
2017-Nov-15 07:28N 35°25' E 139°38'0 0.0
2017-Nov-15 06:58N 35°25' E 139°38'0 0.0
2017-Nov-15 06:28N 35°25' E 139°38'0 0.0
2017-Nov-15 05:58N 35°25' E 139°38'0 0.0
2017-Nov-15 05:25N 35°25' E 139°38'0 0.0
2017-Nov-15 04:58N 35°25' E 139°38'0 0.0
2017-Nov-15 04:28N 35°25' E 139°38'0 0.4
2017-Nov-15 04:00N 35°24' E 139°39'2 4.8
2017-Nov-15 03:30N 35°23' E 139°41'0 0.2
2017-Nov-15 02:58N 35°23' E 139°41'0 0.0
2017-Nov-15 02:28N 35°23' E 139°41'0 0.0
2017-Nov-15 01:58N 35°23' E 139°41'0 0.0
2017-Nov-15 01:28N 35°23' E 139°41'0 0.0
2017-Nov-15 00:58N 35°23' E 139°41'0 0.0
2017-Nov-15 00:28N 35°23' E 139°41'0 0.0
2017-Nov-14 23:58N 35°23' E 139°41'0 0.0
2017-Nov-14 23:28N 35°23' E 139°41'0 0.0
2017-Nov-14 22:58N 35°23' E 139°41'3 6.3
2017-Nov-14 22:30N 35°25' E 139°42'4 8.4
2017-Nov-14 22:00N 35°29' E 139°39'0 0.1
2017-Nov-14 21:30N 35°29' E 139°39'0 0.0
2017-Nov-14 21:00N 35°29' E 139°39'0 0.0
2017-Nov-14 20:30N 35°29' E 139°39'0 0.0
2017-Nov-14 20:00N 35°29' E 139°39'0 0.0
2017-Nov-14 19:30N 35°29' E 139°39'0 0.0
2017-Nov-14 19:00N 35°29' E 139°39'0 0.0
2017-Nov-14 18:30N 35°29' E 139°39'0 0.0
2017-Nov-14 18:00N 35°29' E 139°39'0 0.0
2017-Nov-14 17:30N 35°29' E 139°39'0 0.0
2017-Nov-14 17:00N 35°29' E 139°39'0 0.0
2017-Nov-14 16:30N 35°29' E 139°39'0 0.0
2017-Nov-14 16:00N 35°29' E 139°39'0 0.0
2017-Nov-14 15:30N 35°29' E 139°39'0 0.0
2017-Nov-14 15:00N 35°29' E 139°39'0 0.0
2017-Nov-14 14:30N 35°29' E 139°39'0 0.0
2017-Nov-14 14:00N 35°29' E 139°39'0 0.0
2017-Nov-14 13:30N 35°29' E 139°39'0 0.0
2017-Nov-14 13:00N 35°29' E 139°39'0 0.0
2017-Nov-14 12:30N 35°29' E 139°39'0 0.0
2017-Nov-14 11:57N 35°29' E 139°39'0 0.0
2017-Nov-14 11:30N 35°29' E 139°39'0 0.0
2017-Nov-14 11:00N 35°29' E 139°39'0 0.0
2017-Nov-14 10:30N 35°29' E 139°39'0 0.0
2017-Nov-14 10:00N 35°29' E 139°39'0 0.0
2017-Nov-14 09:30N 35°29' E 139°39'0 0.0
2017-Nov-14 09:00N 35°29' E 139°39'0 0.0
2017-Nov-14 08:30N 35°29' E 139°39'0 0.0
2017-Nov-14 08:00N 35°29' E 139°39'0 0.0
2017-Nov-14 07:30N 35°29' E 139°39'0 0.0
2017-Nov-14 07:00N 35°29' E 139°39'0 0.0
2017-Nov-14 06:30N 35°29' E 139°39'0 0.0
2017-Nov-14 06:00N 35°29' E 139°39'0 0.0
2017-Nov-14 05:30N 35°29' E 139°39'0 0.0
2017-Nov-14 05:00N 35°29' E 139°39'0 0.0
2017-Nov-14 04:30N 35°29' E 139°39'0 0.0
2017-Nov-14 04:00N 35°29' E 139°39'0 0.0
2017-Nov-14 03:30N 35°29' E 139°39'0 0.0
2017-Nov-14 03:00N 35°29' E 139°39'0 0.0
2017-Nov-14 02:30N 35°29' E 139°39'0 0.0
2017-Nov-14 02:00N 35°29' E 139°39'0 0.0
2017-Nov-14 01:30N 35°29' E 139°39'0 0.0
2017-Nov-14 01:00N 35°29' E 139°39'0 0.0
2017-Nov-14 00:30N 35°29' E 139°39'0 0.0
2017-Nov-14 00:00N 35°29' E 139°39'0 0.0
2017-Nov-13 23:30N 35°29' E 139°39'0 0.0
2017-Nov-13 23:00N 35°29' E 139°39'2 3.7
2017-Nov-13 22:30N 35°27' E 139°41'4 7.6
2017-Nov-13 22:00N 35°24' E 139°43'19 0.8
2017-Nov-12 23:51N 35°32' E 140°03'8 6.7
2017-Nov-12 22:38N 35°29' E 139°54'1 4.2
2017-Nov-12 22:30N 35°28' E 139°54'0 0.2
2017-Nov-12 22:00N 35°28' E 139°53'0 0.0
2017-Nov-12 21:27N 35°28' E 139°53'0 0.0
2017-Nov-12 20:54N 35°28' E 139°53'0 0.0
2017-Nov-12 20:30N 35°28' E 139°53'5 7.9
2017-Nov-12 19:55N 35°31' E 139°58'612.3
2017-Nov-12 19:28N 35°28' E 139°52'613.3
2017-Nov-12 19:00N 35°24' E 139°46'612.2
2017-Nov-12 18:31N 35°18' E 139°44'611.6
2017-Nov-12 18:00N 35°13' E 139°47'713.6
2017-Nov-12 17:30N 35°06' E 139°47'713.9
2017-Nov-12 17:00N 34°60' E 139°43'612.2
2017-Nov-12 16:29N 34°54' E 139°45'612.0
2017-Nov-12 15:59N 34°51' E 139°52'612.9
2017-Nov-12 15:30N 34°53' E 139°59'  
Track history (hours):
 
Tides and Currents Weather Stations Pressure Air Temp Water Temp Dewpoint Dewpoint Depression Visibility Wind Speed Wind Dir Waves Ship Positions

Shoei Maru

Last reported at 2017-Nov-20 00:30 UTC. Time now 2017-Nov-20 15:27 UTC.
Position N 35°25' E 139°39'.

Length 105 m; draft 5.2 m.

Type: Tanker. MMSI: 431001401.

Date/timePositionNaut miles runAvg speedWind from/ knotsBaromVisibWave heightAir tempDewpointWater temp
2017-Nov-20 00:30N 35°25' E 139°39'0 0.0
2017-Nov-20 00:00N 35°25' E 139°39'0 0.0
2017-Nov-19 23:30N 35°25' E 139°39'1 2.6
2017-Nov-19 23:00N 35°24' E 139°40'4 7.7
2017-Nov-19 22:30N 35°25' E 139°44'612.7
2017-Nov-19 22:01N 35°29' E 139°50'613.0
2017-Nov-19 21:31N 35°33' E 139°57'612.6
2017-Nov-19 21:00N 35°36' E 140°04'4 0.1
2017-Nov-18 03:08N 35°33' E 140°01'0 0.0
2017-Nov-18 02:44N 35°33' E 140°01'0 0.0
2017-Nov-18 02:14N 35°33' E 140°01'0 0.0
2017-Nov-18 01:56N 35°33' E 140°01'0 0.0
2017-Nov-18 01:29N 35°33' E 140°01'0 0.0
2017-Nov-18 00:59N 35°33' E 140°01'0 0.0
2017-Nov-18 00:29N 35°33' E 140°01'610.0
2017-Nov-17 23:53N 35°29' E 139°55'513.8
2017-Nov-17 23:30N 35°27' E 139°49'612.6
2017-Nov-17 23:00N 35°21' E 139°45'5 9.9
2017-Nov-17 22:30N 35°17' E 139°46'611.2
2017-Nov-17 22:00N 35°11' E 139°47'713.2
2017-Nov-17 21:30N 35°04' E 139°46'714.5
2017-Nov-17 21:00N 34°58' E 139°43'712.7
2017-Nov-17 20:30N 34°52' E 139°47'912.7
2017-Nov-17 19:45N 34°53' E 139°58'6 0.1
2017-Nov-15 16:31N 34°49' E 139°53'614.3
2017-Nov-15 16:04N 34°51' E 139°45'114.3
2017-Nov-15 16:00N 34°51' E 139°45'714.1
2017-Nov-15 15:30N 34°57' E 139°42'713.3
2017-Nov-15 15:00N 35°04' E 139°43'713.9
2017-Nov-15 14:30N 35°11' E 139°45'612.3
2017-Nov-15 14:00N 35°17' E 139°45'713.2
2017-Nov-15 13:30N 35°23' E 139°41'3 5.8
2017-Nov-15 12:58N 35°25' E 139°38'0 0.0
2017-Nov-15 12:28N 35°25' E 139°38'0 0.0
2017-Nov-15 11:58N 35°25' E 139°38'0 0.0
2017-Nov-15 11:28N 35°25' E 139°38'0 0.0
2017-Nov-15 10:58N 35°25' E 139°38'0 0.0
2017-Nov-15 10:28N 35°25' E 139°38'0 0.0
2017-Nov-15 09:58N 35°25' E 139°38'0 0.0
2017-Nov-15 09:28N 35°25' E 139°38'0 0.0
2017-Nov-15 08:58N 35°25' E 139°38'0 0.0
2017-Nov-15 08:28N 35°25' E 139°38'0 0.0
2017-Nov-15 07:58N 35°25' E 139°38'0 0.0
2017-Nov-15 07:28N 35°25' E 139°38'0 0.0
2017-Nov-15 06:58N 35°25' E 139°38'0 0.0
2017-Nov-15 06:28N 35°25' E 139°38'0 0.0
2017-Nov-15 05:58N 35°25' E 139°38'0 0.0
2017-Nov-15 05:25N 35°25' E 139°38'0 0.0
2017-Nov-15 04:58N 35°25' E 139°38'0 0.0
2017-Nov-15 04:28N 35°25' E 139°38'0 0.4
2017-Nov-15 04:00N 35°24' E 139°39'2 4.8
2017-Nov-15 03:30N 35°23' E 139°41'0 0.2
2017-Nov-15 02:58N 35°23' E 139°41'0 0.0
2017-Nov-15 02:28N 35°23' E 139°41'0 0.0
2017-Nov-15 01:58N 35°23' E 139°41'0 0.0
2017-Nov-15 01:28N 35°23' E 139°41'0 0.0
2017-Nov-15 00:58N 35°23' E 139°41'0 0.0
2017-Nov-15 00:28N 35°23' E 139°41'0 0.0
2017-Nov-14 23:58N 35°23' E 139°41'0 0.0
2017-Nov-14 23:28N 35°23' E 139°41'0 0.0
2017-Nov-14 22:58N 35°23' E 139°41'3 6.3
2017-Nov-14 22:30N 35°25' E 139°42'4 8.4
2017-Nov-14 22:00N 35°29' E 139°39'0 0.1
2017-Nov-14 21:30N 35°29' E 139°39'0 0.0
2017-Nov-14 21:00N 35°29' E 139°39'0 0.0
2017-Nov-14 20:30N 35°29' E 139°39'0 0.0
2017-Nov-14 20:00N 35°29' E 139°39'0 0.0
2017-Nov-14 19:30N 35°29' E 139°39'0 0.0
2017-Nov-14 19:00N 35°29' E 139°39'0 0.0
2017-Nov-14 18:30N 35°29' E 139°39'0 0.0
2017-Nov-14 18:00N 35°29' E 139°39'0 0.0
2017-Nov-14 17:30N 35°29' E 139°39'0 0.0
2017-Nov-14 17:00N 35°29' E 139°39'0 0.0
2017-Nov-14 16:30N 35°29' E 139°39'0 0.0
2017-Nov-14 16:00N 35°29' E 139°39'0 0.0
2017-Nov-14 15:30N 35°29' E 139°39'0 0.0
2017-Nov-14 15:00N 35°29' E 139°39'0 0.0
2017-Nov-14 14:30N 35°29' E 139°39'0 0.0
2017-Nov-14 14:00N 35°29' E 139°39'0 0.0
2017-Nov-14 13:30N 35°29' E 139°39'0 0.0
2017-Nov-14 13:00N 35°29' E 139°39'0 0.0
2017-Nov-14 12:30N 35°29' E 139°39'0 0.0
2017-Nov-14 11:57N 35°29' E 139°39'0 0.0
2017-Nov-14 11:30N 35°29' E 139°39'0 0.0
2017-Nov-14 11:00N 35°29' E 139°39'0 0.0
2017-Nov-14 10:30N 35°29' E 139°39'0 0.0
2017-Nov-14 10:00N 35°29' E 139°39'0 0.0
2017-Nov-14 09:30N 35°29' E 139°39'0 0.0
2017-Nov-14 09:00N 35°29' E 139°39'0 0.0
2017-Nov-14 08:30N 35°29' E 139°39'0 0.0
2017-Nov-14 08:00N 35°29' E 139°39'0 0.0
2017-Nov-14 07:30N 35°29' E 139°39'0 0.0
2017-Nov-14 07:00N 35°29' E 139°39'0 0.0
2017-Nov-14 06:30N 35°29' E 139°39'0 0.0
2017-Nov-14 06:00N 35°29' E 139°39'0 0.0
2017-Nov-14 05:30N 35°29' E 139°39'0 0.0
2017-Nov-14 05:00N 35°29' E 139°39'0 0.0
2017-Nov-14 04:30N 35°29' E 139°39'0 0.0
2017-Nov-14 04:00N 35°29' E 139°39'0 0.0
2017-Nov-14 03:30N 35°29' E 139°39'0 0.0
2017-Nov-14 03:00N 35°29' E 139°39'0 0.0
2017-Nov-14 02:30N 35°29' E 139°39'0 0.0
2017-Nov-14 02:00N 35°29' E 139°39'0 0.0
2017-Nov-14 01:30N 35°29' E 139°39'0 0.0
2017-Nov-14 01:00N 35°29' E 139°39'0 0.0
2017-Nov-14 00:30N 35°29' E 139°39'0 0.0
2017-Nov-14 00:00N 35°29' E 139°39'0 0.0
2017-Nov-13 23:30N 35°29' E 139°39'0 0.0
2017-Nov-13 23:00N 35°29' E 139°39'2 3.7
2017-Nov-13 22:30N 35°27' E 139°41'4 7.6
2017-Nov-13 22:00N 35°24' E 139°43'19 0.8
2017-Nov-12 23:51N 35°32' E 140°03'8 6.7
2017-Nov-12 22:38N 35°29' E 139°54'1 4.2
2017-Nov-12 22:30N 35°28' E 139°54'0 0.2
2017-Nov-12 22:00N 35°28' E 139°53'0 0.0
2017-Nov-12 21:27N 35°28' E 139°53'0 0.0
2017-Nov-12 20:54N 35°28' E 139°53'0 0.0
2017-Nov-12 20:30N 35°28' E 139°53'5 7.9
2017-Nov-12 19:55N 35°31' E 139°58'612.3
2017-Nov-12 19:28N 35°28' E 139°52'613.3
2017-Nov-12 19:00N 35°24' E 139°46'612.2
2017-Nov-12 18:31N 35°18' E 139°44'611.6
2017-Nov-12 18:00N 35°13' E 139°47'713.6
2017-Nov-12 17:30N 35°06' E 139°47'713.9
2017-Nov-12 17:00N 34°60' E 139°43'612.2
2017-Nov-12 16:29N 34°54' E 139°45'612.0
2017-Nov-12 15:59N 34°51' E 139°52'612.9
2017-Nov-12 15:30N 34°53' E 139°59'  

Dump ship's entire track history